createdAt,value
2022-08-17T00:01:16.764Z,68.23
2022-08-17T00:03:46.542Z,68.45
2022-08-17T00:06:16.994Z,68.58
2022-08-17T00:08:46.031Z,68.81
2022-08-17T00:11:15.884Z,68.86
2022-08-17T00:13:45.466Z,68.90
2022-08-17T00:16:16.625Z,69.05
2022-08-17T00:19:06.162Z,69.24
2022-08-17T00:22:00.015Z,68.87
2022-08-17T00:24:20.214Z,69.14
2022-08-17T00:26:46.912Z,69.20
2022-08-17T00:29:19.430Z,69.17
2022-08-17T00:31:48.589Z,69.23
2022-08-17T00:34:15.195Z,69.09
2022-08-17T00:36:41.839Z,69.22
2022-08-17T00:39:08.402Z,69.27
2022-08-17T00:41:35.142Z,69.34
2022-08-17T00:44:05.100Z,69.44
2022-08-17T00:46:33.856Z,69.50
2022-08-17T00:49:02.378Z,69.49
2022-08-17T00:51:32.986Z,69.44
2022-08-17T00:54:05.140Z,69.52
2022-08-17T00:56:36.025Z,69.42
2022-08-17T00:59:05.057Z,69.52
2022-08-17T01:01:32.633Z,69.56
2022-08-17T01:04:01.202Z,69.55
2022-08-17T01:06:29.897Z,69.54
2022-08-17T01:08:58.973Z,69.56
2022-08-17T01:11:25.804Z,70.05
2022-08-17T01:13:52.685Z,70.18
2022-08-17T01:16:22.983Z,70.04
2022-08-17T01:18:53.021Z,70.31
2022-08-17T01:21:26.560Z,70.52
2022-08-17T01:23:55.552Z,70.96
2022-08-17T01:26:22.738Z,71.00
2022-08-17T01:28:54.687Z,71.19
2022-08-17T01:31:24.984Z,70.99
2022-08-17T01:33:51.673Z,71.18
2022-08-17T01:36:18.425Z,71.08
2022-08-17T01:38:45.131Z,71.35
2022-08-17T01:41:15.527Z,71.27
2022-08-17T01:43:47.379Z,71.49
2022-08-17T01:46:16.192Z,71.43
2022-08-17T01:48:42.761Z,71.45
2022-08-17T01:51:09.561Z,71.63
2022-08-17T01:53:40.331Z,71.91
2022-08-17T01:56:12.299Z,72.24
2022-08-17T01:58:42.067Z,72.25
2022-08-17T02:01:10.372Z,72.05
2022-08-17T02:03:37.823Z,72.31
2022-08-17T02:06:06.649Z,72.78
2022-08-17T02:09:03.074Z,73.16
2022-08-17T02:11:32.382Z,72.93
2022-08-17T02:14:03.383Z,73.08
2022-08-17T02:16:37.845Z,73.20
2022-08-17T02:19:06.880Z,73.13
2022-08-17T02:21:33.588Z,73.00
2022-08-17T02:24:00.519Z,73.37
2022-08-17T02:26:27.228Z,73.56
2022-08-17T02:28:53.850Z,73.73
2022-08-17T02:31:21.835Z,73.78
2022-08-17T02:34:03.295Z,74.12
2022-08-17T02:36:32.996Z,73.97
2022-08-17T02:39:00.258Z,74.26
2022-08-17T02:41:26.922Z,74.35
2022-08-17T02:43:53.470Z,74.35
2022-08-17T02:46:20.152Z,74.53
2022-08-17T02:48:48.082Z,74.74
2022-08-17T02:51:14.893Z,75.16
2022-08-17T02:53:41.460Z,75.36
2022-08-17T02:56:08.127Z,75.12
2022-08-17T02:58:36.101Z,74.79
2022-08-17T03:01:04.623Z,75.23
2022-08-17T03:03:31.560Z,75.46
2022-08-17T03:05:59.898Z,75.54
2022-08-17T03:08:26.874Z,76.21
2022-08-17T03:10:53.771Z,76.46
2022-08-17T03:13:20.433Z,76.41
2022-08-17T03:15:48.074Z,76.70
2022-08-17T03:18:19.103Z,76.66
2022-08-17T03:20:52.638Z,76.75
2022-08-17T03:23:24.116Z,76.55
2022-08-17T03:25:52.996Z,76.70
2022-08-17T03:28:20.315Z,76.65
2022-08-17T03:30:47.011Z,76.58
2022-08-17T03:33:13.777Z,76.42
2022-08-17T03:35:41.309Z,76.62
2022-08-17T03:38:09.052Z,76.78
2022-08-17T03:40:57.766Z,77.21
2022-08-17T03:43:25.227Z,77.21
2022-08-17T03:45:51.978Z,77.08
2022-08-17T03:48:20.494Z,77.03
2022-08-17T03:50:47.099Z,77.53
2022-08-17T03:53:17.332Z,77.75
2022-08-17T03:55:45.286Z,77.64
2022-08-17T03:58:11.899Z,77.93
2022-08-17T04:00:39.741Z,78.24
2022-08-17T04:03:06.512Z,78.46
2022-08-17T04:05:35.609Z,78.79
2022-08-17T04:08:02.298Z,78.96
2022-08-17T04:10:33.921Z,79.02
2022-08-17T04:13:06.499Z,79.00
2022-08-17T04:15:33.074Z,78.88
2022-08-17T04:18:00.085Z,79.11
2022-08-17T04:20:26.696Z,78.77
2022-08-17T04:22:58.075Z,78.71
2022-08-17T04:25:26.035Z,78.26
2022-08-17T04:27:52.739Z,78.44
2022-08-17T04:30:21.343Z,78.54
2022-08-17T04:33:04.467Z,78.63
2022-08-17T04:35:36.367Z,78.72
2022-08-17T04:38:02.947Z,78.63
2022-08-17T04:40:29.544Z,78.44
2022-08-17T04:43:01.205Z,78.41
2022-08-17T04:45:32.264Z,78.38
2022-08-17T04:47:59.777Z,78.26
2022-08-17T04:50:26.390Z,77.98
2022-08-17T04:52:52.990Z,77.93
2022-08-17T04:55:19.628Z,77.89
2022-08-17T04:57:46.289Z,78.09
2022-08-17T05:00:13.552Z,77.90
2022-08-17T05:02:49.925Z,77.78
2022-08-17T05:05:18.966Z,77.64
2022-08-17T05:07:45.535Z,77.58
2022-08-17T05:10:12.296Z,77.64
2022-08-17T05:12:38.882Z,77.46
2022-08-17T05:15:11.461Z,77.08
2022-08-17T05:17:38.102Z,76.76
2022-08-17T05:20:07.294Z,76.74
2022-08-17T05:22:33.912Z,76.50
2022-08-17T05:25:02.708Z,76.69
2022-08-17T05:27:35.149Z,76.62
2022-08-17T05:30:02.237Z,76.56
2022-08-17T05:32:37.869Z,76.55
2022-08-17T05:35:09.137Z,76.34
2022-08-17T05:37:35.767Z,76.20
2022-08-17T05:40:02.551Z,75.84
2022-08-17T05:42:29.187Z,75.67
2022-08-17T05:44:57.685Z,75.33
2022-08-17T05:47:26.111Z,75.09
2022-08-17T05:49:53.841Z,74.50
2022-08-17T05:52:33.287Z,74.12
2022-08-17T05:55:13.676Z,73.41
2022-08-17T05:57:54.086Z,73.47
2022-08-17T06:00:30.673Z,73.21
2022-08-17T06:03:18.667Z,73.25
2022-08-17T06:05:58.115Z,72.98
2022-08-17T06:08:34.099Z,72.90
2022-08-17T06:11:10.382Z,72.24
2022-08-17T06:13:55.927Z,72.16
2022-08-17T06:16:26.315Z,71.66
2022-08-17T06:19:05.635Z,71.29
2022-08-17T06:21:36.086Z,71.22
2022-08-17T06:24:07.189Z,71.13
2022-08-17T06:26:43.051Z,70.63
2022-08-17T06:29:20.875Z,69.85
2022-08-17T06:31:47.572Z,69.49
2022-08-17T06:34:14.243Z,69.01
2022-08-17T06:36:52.059Z,68.63
2022-08-17T06:39:34.320Z,68.57
2022-08-17T06:43:02.331Z,68.64
2022-08-17T06:45:07.146Z,68.01
2022-08-17T06:47:42.384Z,67.72
2022-08-17T06:50:17.925Z,66.71
2022-08-17T06:52:52.646Z,66.16
2022-08-17T06:55:25.182Z,65.37
2022-08-17T06:57:58.067Z,64.25
2022-08-17T07:00:29.711Z,63.85
2022-08-17T07:03:02.523Z,62.81
2022-08-17T07:05:35.411Z,63.15
2022-08-17T07:08:08.446Z,62.84
2022-08-17T07:10:42.591Z,61.68
2022-08-17T07:13:22.287Z,60.01
2022-08-17T07:15:56.414Z,59.18
2022-08-17T07:18:26.439Z,58.43
2022-08-17T07:20:58.092Z,57.42
2022-08-17T07:23:34.851Z,56.28
2022-08-17T07:26:05.800Z,56.46
2022-08-17T07:28:33.709Z,56.93
2022-08-17T07:31:00.540Z,56.07
2022-08-17T07:44:19.118Z,53.90
2022-08-17T07:46:50.438Z,53.04
2022-08-17T07:49:21.836Z,52.83
2022-08-17T07:52:47.710Z,52.43
2022-08-17T07:54:47.771Z,52.06
2022-08-17T07:57:31.447Z,50.69
2022-08-17T08:00:16.884Z,50.10
2022-08-17T08:02:46.342Z,49.65
2022-08-17T08:05:30.672Z,49.96
2022-08-17T08:08:23.834Z,49.89
2022-08-17T08:10:59.965Z,49.06
2022-08-17T08:13:28.539Z,48.10
2022-08-17T08:16:14.599Z,47.68
2022-08-17T08:18:55.327Z,47.18
2022-08-17T08:21:36.299Z,48.58
2022-08-17T08:24:23.318Z,48.49
2022-08-17T08:27:02.155Z,48.65
2022-08-17T08:29:40.255Z,48.34
2022-08-17T08:32:16.009Z,47.34
2022-08-17T08:35:02.608Z,47.64
2022-08-17T08:37:42.657Z,48.07
2022-08-17T08:40:43.126Z,48.05
2022-08-17T08:43:21.203Z,48.10
2022-08-17T08:46:01.072Z,48.54
2022-08-17T08:48:58.694Z,48.85
2022-08-17T08:51:37.638Z,49.13
2022-08-17T08:54:15.556Z,48.90
2022-08-17T08:57:19.480Z,48.63
2022-08-17T08:59:44.312Z,49.11
2022-08-17T09:02:23.881Z,48.99
2022-08-17T09:05:16.388Z,49.30
2022-08-17T09:07:51.832Z,49.29
2022-08-17T09:10:29.413Z,50.07
2022-08-17T09:13:09.820Z,49.95
2022-08-17T09:15:41.984Z,51.09
2022-08-17T09:19:01.293Z,51.02
2022-08-17T09:21:07.530Z,51.50
2022-08-17T09:23:39.016Z,51.63
2022-08-17T09:26:11.710Z,51.75
2022-08-17T09:28:41.063Z,52.05
2022-08-17T09:31:11.281Z,51.90
2022-08-17T09:33:43.159Z,52.11
2022-08-17T09:36:17.547Z,52.30
2022-08-17T09:38:55.056Z,52.26
2022-08-17T09:41:26.623Z,52.31
2022-08-17T09:44:06.401Z,52.69
2022-08-17T09:46:40.762Z,52.81
2022-08-17T09:49:14.618Z,52.47
2022-08-17T09:51:48.503Z,52.67
2022-08-17T09:54:38.587Z,52.15
2022-08-17T09:57:35.823Z,50.96
2022-08-17T10:00:14.502Z,49.60
2022-08-17T10:03:15.954Z,49.55
2022-08-17T10:05:43.953Z,48.50
2022-08-17T10:08:21.817Z,48.65
2022-08-17T10:10:56.352Z,48.71
2022-08-17T10:13:35.652Z,47.22
2022-08-17T10:16:12.128Z,46.73
2022-08-17T10:18:47.563Z,45.66
2022-08-17T10:21:16.508Z,45.17
2022-08-17T10:23:47.122Z,45.06
2022-08-17T10:26:18.717Z,44.68
2022-08-17T10:28:53.772Z,43.56
2022-08-17T10:31:35.457Z,43.52
2022-08-17T10:34:32.271Z,43.21
2022-08-17T10:37:28.715Z,43.39
2022-08-17T10:40:19.257Z,43.43
2022-08-17T10:42:50.041Z,42.48
2022-08-17T10:45:19.735Z,42.63
2022-08-17T10:47:58.115Z,42.11
2022-08-17T10:50:57.278Z,41.15
2022-08-17T10:53:50.098Z,41.34
2022-08-17T10:56:43.582Z,41.89
2022-08-17T10:59:50.433Z,41.62
2022-08-17T11:02:24.404Z,41.51
2022-08-17T11:05:01.171Z,41.73
2022-08-17T11:07:44.667Z,41.16
2022-08-17T11:10:27.585Z,41.03
2022-08-17T11:13:03.856Z,40.91
2022-08-17T11:15:47.499Z,41.01
2022-08-17T11:18:28.574Z,41.32
2022-08-17T11:21:17.353Z,41.32
2022-08-17T11:23:56.610Z,41.59
2022-08-17T11:26:27.301Z,41.26
2022-08-17T11:29:08.211Z,41.13
2022-08-17T11:31:37.971Z,41.49
2022-08-17T11:34:13.450Z,41.19
2022-08-17T11:37:18.998Z,40.71
2022-08-17T11:40:00.262Z,40.08
2022-08-17T11:42:39.407Z,40.08
2022-08-17T11:45:32.366Z,39.86
2022-08-17T11:48:27.206Z,39.69
2022-08-17T11:50:59.931Z,39.77
2022-08-17T11:54:21.608Z,39.43
2022-08-17T11:56:47.983Z,38.83
2022-08-17T11:59:51.907Z,38.22
2022-08-17T12:02:45.589Z,38.23
2022-08-17T12:05:34.451Z,38.43
2022-08-17T12:08:19.051Z,38.63
2022-08-17T12:11:00.091Z,38.67
2022-08-17T12:13:38.539Z,38.97
2022-08-17T12:16:07.382Z,38.49
2022-08-17T12:18:36.745Z,38.30
2022-08-17T12:21:28.695Z,37.91
2022-08-17T12:24:00.319Z,37.01
2022-08-17T12:26:31.406Z,37.70
2022-08-17T12:29:01.141Z,37.08
2022-08-17T12:31:30.861Z,36.97
2022-08-17T12:33:58.960Z,37.00
2022-08-17T12:36:27.680Z,36.91
2022-08-17T12:38:57.571Z,36.67
2022-08-17T12:41:37.099Z,35.61
2022-08-17T12:44:06.104Z,35.67
2022-08-17T12:46:44.407Z,36.27
2022-08-17T12:49:20.123Z,35.58
2022-08-17T12:51:47.668Z,34.87
2022-08-17T12:54:29.278Z,34.83
2022-08-17T12:56:57.284Z,34.16
2022-08-17T12:59:29.803Z,33.78
2022-08-17T13:01:57.805Z,33.36
2022-08-17T13:04:26.498Z,33.27
2022-08-17T13:06:59.790Z,34.30
2022-08-17T13:09:35.290Z,34.20
2022-08-17T13:12:03.270Z,34.11
2022-08-17T13:14:33.347Z,34.35
2022-08-17T13:17:02.164Z,34.15
2022-08-17T13:19:40.687Z,34.46
2022-08-17T13:22:11.750Z,33.56
2022-08-17T13:24:48.360Z,33.78
2022-08-17T13:27:15.054Z,33.76
2022-08-17T13:29:51.270Z,33.96
2022-08-17T13:32:21.906Z,32.98
2022-08-17T13:35:14.910Z,33.08
2022-08-17T13:37:38.322Z,34.05
2022-08-17T13:40:35.507Z,32.58
2022-08-17T13:43:02.722Z,32.76
2022-08-17T13:45:43.590Z,32.81
2022-08-17T13:48:19.335Z,33.33
2022-08-17T13:51:03.211Z,32.71
2022-08-17T13:53:32.990Z,33.08
2022-08-17T13:56:02.244Z,33.83
2022-08-17T13:58:34.222Z,34.14
2022-08-17T14:01:28.621Z,33.91
2022-08-17T14:03:55.500Z,34.41
2022-08-17T14:06:51.820Z,34.94
2022-08-17T14:09:12.259Z,35.44
2022-08-17T14:11:38.860Z,35.33
2022-08-17T14:14:05.500Z,36.75
2022-08-17T14:16:32.121Z,36.98
2022-08-17T14:18:58.854Z,36.59
2022-08-17T14:21:26.818Z,36.82
2022-08-17T14:23:54.911Z,37.20
2022-08-17T14:26:21.767Z,37.21
2022-08-17T14:28:56.303Z,37.42
2022-08-17T14:31:23.630Z,37.34
2022-08-17T14:33:50.214Z,37.87
2022-08-17T14:36:16.860Z,37.86
2022-08-17T14:38:45.012Z,38.17
2022-08-17T14:41:11.761Z,37.79
2022-08-17T14:43:38.325Z,36.86
2022-08-17T14:46:05.143Z,35.90
2022-08-17T14:48:31.699Z,36.04
2022-08-17T14:50:58.459Z,35.71
2022-08-17T14:53:25.053Z,36.46
2022-08-17T14:55:53.103Z,37.01
2022-08-17T14:58:19.688Z,36.81
2022-08-17T15:00:46.430Z,36.42
2022-08-17T15:03:13.001Z,35.67
2022-08-17T15:05:40.136Z,35.45
2022-08-17T15:08:07.997Z,35.51
2022-08-17T15:10:36.121Z,35.12
2022-08-17T15:13:04.050Z,35.49
2022-08-17T15:15:31.106Z,35.71
2022-08-17T15:17:58.253Z,35.55
2022-08-17T15:20:27.705Z,35.73
2022-08-17T15:22:56.097Z,36.07
2022-08-17T15:25:24.169Z,36.47
2022-08-17T15:27:50.993Z,37.50
2022-08-17T15:30:20.173Z,37.19
2022-08-17T15:32:54.274Z,36.91
2022-08-17T15:35:27.930Z,36.14
2022-08-17T15:37:56.246Z,35.77
2022-08-17T15:40:22.807Z,35.61
2022-08-17T15:42:49.463Z,35.99
2022-08-17T15:45:16.027Z,35.72
2022-08-17T15:47:44.326Z,34.96
2022-08-17T15:50:11.049Z,34.22
2022-08-17T15:52:37.697Z,34.19
2022-08-17T15:55:06.570Z,33.92
2022-08-17T15:57:33.259Z,33.39
2022-08-17T15:59:59.900Z,33.43
2022-08-17T16:03:15.878Z,33.65
2022-08-17T16:05:24.073Z,33.80
2022-08-17T16:07:51.743Z,34.04
2022-08-17T16:10:19.437Z,34.28
2022-08-17T16:12:47.574Z,33.17
2022-08-17T16:15:15.053Z,33.44
2022-08-17T16:17:41.701Z,33.17
2022-08-17T16:20:09.283Z,32.66
2022-08-17T16:22:49.991Z,32.34
2022-08-17T16:25:17.778Z,32.13
2022-08-17T16:27:45.379Z,32.43
2022-08-17T16:30:17.375Z,31.99
2022-08-17T16:32:44.927Z,31.90
2022-08-17T16:35:13.125Z,31.89
2022-08-17T16:37:39.744Z,31.33
2022-08-17T16:40:11.058Z,31.45
2022-08-17T16:42:38.846Z,31.82
2022-08-17T16:45:08.532Z,31.84
2022-08-17T16:47:35.768Z,31.76
2022-08-17T16:50:02.493Z,31.92
2022-08-17T16:52:32.398Z,31.52
2022-08-17T16:55:01.324Z,31.70
2022-08-17T16:57:29.959Z,31.73
2022-08-17T16:59:56.966Z,31.60
2022-08-17T17:02:28.716Z,30.69
2022-08-17T17:05:01.960Z,31.27
2022-08-17T17:07:44.064Z,31.26
2022-08-17T17:10:14.252Z,30.96
2022-08-17T17:13:02.870Z,31.71
2022-08-17T17:15:42.803Z,32.25
2022-08-17T17:18:12.525Z,32.12
2022-08-17T17:20:45.692Z,32.19
2022-08-17T17:23:27.883Z,32.09
2022-08-17T17:26:02.892Z,31.91
2022-08-17T17:28:37.929Z,31.96
2022-08-17T17:31:13.706Z,31.40
2022-08-17T17:33:44.496Z,31.65
2022-08-17T17:36:23.734Z,32.10
2022-08-17T17:38:54.078Z,33.11
2022-08-17T17:41:26.493Z,33.36
2022-08-17T17:44:01.892Z,34.38
2022-08-17T17:46:35.026Z,35.06
2022-08-17T17:49:01.704Z,36.89
2022-08-17T17:52:03.658Z,37.11
2022-08-17T17:54:38.082Z,37.35
2022-08-17T17:57:15.168Z,38.15
2022-08-17T17:59:55.074Z,38.37
2022-08-17T18:02:35.384Z,38.96
2022-08-17T18:05:08.531Z,39.17
2022-08-17T18:07:42.682Z,39.85
2022-08-17T18:10:29.603Z,40.03
2022-08-17T18:13:10.354Z,40.57
2022-08-17T18:15:44.879Z,41.67
2022-08-17T18:18:34.174Z,41.88
2022-08-17T18:21:03.560Z,42.22
2022-08-17T18:23:30.131Z,42.61
2022-08-17T18:25:57.438Z,42.97
2022-08-17T18:28:28.031Z,42.91
2022-08-17T18:31:15.643Z,44.29
2022-08-17T18:33:44.413Z,44.31
2022-08-17T18:36:11.930Z,44.89
2022-08-17T18:38:40.533Z,45.32
2022-08-17T18:41:18.584Z,45.33
2022-08-17T18:43:57.514Z,45.66
2022-08-17T18:46:32.913Z,46.63
2022-08-17T18:49:01.986Z,46.88
2022-08-17T18:51:40.816Z,47.68
2022-08-17T18:54:17.792Z,48.22
2022-08-17T18:56:49.778Z,48.15
2022-08-17T18:59:27.291Z,48.63
2022-08-17T19:02:09.965Z,49.50
2022-08-17T19:04:41.790Z,49.56
2022-08-17T19:07:23.551Z,49.95
2022-08-17T19:09:53.964Z,50.09
2022-08-17T19:12:27.369Z,50.63
2022-08-17T19:14:56.402Z,51.35
2022-08-17T19:17:30.619Z,51.33
2022-08-17T19:20:02.192Z,52.39
2022-08-17T19:22:44.507Z,53.03
2022-08-17T19:25:16.112Z,53.36
2022-08-17T19:27:50.282Z,53.77
2022-08-17T19:30:17.684Z,54.25
2022-08-17T19:32:45.778Z,54.75
2022-08-17T19:35:17.399Z,55.26
2022-08-17T19:37:57.730Z,56.86
2022-08-17T19:44:00.770Z,57.73
2022-08-17T19:46:35.632Z,57.56
2022-08-17T19:49:13.941Z,57.74
2022-08-17T19:51:47.400Z,58.00
2022-08-17T19:54:22.149Z,58.37
2022-08-17T19:56:59.164Z,58.53
2022-08-17T19:59:44.379Z,58.88
2022-08-17T20:02:30.542Z,59.32
2022-08-17T20:05:01.571Z,59.67
2022-08-17T20:07:37.056Z,60.00
2022-08-17T20:10:08.413Z,59.96
2022-08-17T20:12:36.018Z,61.08
2022-08-17T20:15:08.567Z,61.23
2022-08-17T20:17:37.519Z,61.42
2022-08-17T20:20:26.002Z,61.94
2022-08-17T20:23:02.350Z,62.10
2022-08-17T20:25:36.276Z,62.55
2022-08-17T20:28:15.195Z,62.41
2022-08-17T20:30:43.428Z,62.48
2022-08-17T20:33:24.190Z,62.86
2022-08-17T20:36:11.711Z,63.49
2022-08-17T20:38:42.510Z,63.85
2022-08-17T20:41:12.641Z,64.13
2022-08-17T20:43:49.070Z,64.39
2022-08-17T20:46:51.586Z,64.78
2022-08-17T20:49:24.718Z,64.73
2022-08-17T20:52:00.582Z,64.81
2022-08-17T20:54:42.947Z,65.48
2022-08-17T20:57:30.037Z,65.29
2022-08-17T21:00:02.778Z,65.35
2022-08-17T21:02:29.635Z,65.44
2022-08-17T21:05:07.208Z,66.33
2022-08-17T21:07:53.125Z,66.42
2022-08-17T21:10:32.019Z,66.20
2022-08-17T21:13:19.859Z,66.59
2022-08-17T21:15:51.605Z,66.40
2022-08-17T21:18:27.390Z,66.86
2022-08-17T21:21:08.655Z,67.21
2022-08-17T21:23:58.363Z,67.79
2022-08-17T21:26:32.738Z,68.03
2022-08-17T21:29:17.844Z,68.29
2022-08-17T21:32:19.252Z,68.24
2022-08-17T21:35:23.408Z,68.87
2022-08-17T21:37:53.066Z,69.50
2022-08-17T21:40:25.990Z,69.20
2022-08-17T21:42:55.382Z,69.72
2022-08-17T21:45:26.419Z,70.10
2022-08-17T21:48:09.376Z,70.20
2022-08-17T21:50:36.746Z,70.59
2022-08-17T21:53:05.041Z,71.37
2022-08-17T21:55:36.127Z,71.23
2022-08-17T21:58:13.597Z,71.14
2022-08-17T22:00:41.113Z,71.43
2022-08-17T22:03:22.834Z,71.43
2022-08-17T22:05:49.549Z,71.61
2022-08-17T22:08:20.169Z,71.65
2022-08-17T22:10:49.035Z,71.62
2022-08-17T22:13:22.331Z,71.44
2022-08-17T22:16:15.454Z,71.78
2022-08-17T22:18:54.761Z,71.99
2022-08-17T22:21:22.595Z,72.57
2022-08-17T22:24:04.201Z,72.60
2022-08-17T22:27:01.726Z,73.37
2022-08-17T22:29:53.335Z,73.55
2022-08-17T22:32:34.374Z,73.58
2022-08-17T22:35:29.049Z,73.95
2022-08-17T22:37:56.257Z,73.98
2022-08-17T22:40:28.857Z,74.32
2022-08-17T22:42:58.015Z,74.30
2022-08-17T22:45:25.877Z,74.31
2022-08-17T22:47:55.267Z,74.67
2022-08-17T22:50:24.227Z,74.98
2022-08-17T22:52:59.594Z,75.08
2022-08-17T22:55:27.680Z,75.00
2022-08-17T22:57:54.310Z,74.79
2022-08-17T23:00:31.535Z,75.08
2022-08-17T23:03:11.963Z,75.19
2022-08-17T23:05:40.846Z,75.01
2022-08-17T23:08:07.709Z,75.04
2022-08-17T23:10:34.325Z,74.89
2022-08-17T23:13:00.955Z,75.01
2022-08-17T23:15:29.048Z,75.33
2022-08-17T23:17:55.689Z,75.57
2022-08-17T23:20:22.325Z,75.61
2022-08-17T23:22:52.163Z,75.80
2022-08-17T23:25:25.587Z,76.15
2022-08-17T23:27:52.509Z,76.56
2022-08-17T23:30:19.362Z,76.68
2022-08-17T23:32:47.454Z,76.69
2022-08-17T23:35:39.650Z,76.80
2022-08-17T23:38:08.132Z,76.63
2022-08-17T23:40:34.738Z,76.74
2022-08-17T23:43:05.817Z,77.02
2022-08-17T23:45:36.558Z,76.93
2022-08-17T23:48:15.577Z,77.58
2022-08-17T23:50:56.054Z,77.54
2022-08-17T23:53:22.972Z,77.24
2022-08-17T23:56:03.709Z,77.16
2022-08-17T23:58:36.739Z,77.21
